Time;durP1;ratioP1;P1;durP2;ratioP2;P2;SDS_P1;SDS_P2;PMS_P1;PMS_P2;Temp;Humidity;BMP_temperature;BMP_pressure;BME280_temperature;BME280_humidity;BME280_pressure;Samples;Min_cycle;Max_cycle;Signal;HPM_P1;HPM_P2
2021/08/04 00:02:24;;;;;;;5.20;3.80;;;17.80;99.90;;;;;;5037215;28;20505;-80
2021/08/04 00:04:52;;;;;;;4.70;3.47;;;17.70;99.90;;;;;;5036169;28;20920;-81
2021/08/04 00:07:19;;;;;;;7.27;4.67;;;17.60;99.90;;;;;;5036564;28;20875;-80
2021/08/04 00:09:45;;;;;;;5.77;4.80;;;17.70;99.90;;;;;;5035893;28;20443;-80
2021/08/04 00:12:12;;;;;;;4.57;4.17;;;17.60;99.90;;;;;;5035448;28;20459;-80
2021/08/04 00:14:39;;;;;;;4.30;3.90;;;17.60;99.90;;;;;;5035688;28;21891;-80
2021/08/04 00:17:06;;;;;;;5.20;3.90;;;17.70;99.90;;;;;;5036208;28;20451;-80
2021/08/04 00:19:32;;;;;;;3.93;3.50;;;17.70;99.90;;;;;;5037969;28;20818;-80
2021/08/04 00:22:00;;;;;;;4.80;3.83;;;17.70;99.90;;;;;;5038418;28;20809;-80
2021/08/04 00:24:27;;;;;;;8.30;3.60;;;17.60;99.90;;;;;;5037558;28;20502;-80
2021/08/04 00:26:54;;;;;;;4.33;3.00;;;17.80;99.90;;;;;;5037064;28;20867;-80
2021/08/04 00:29:20;;;;;;;4.43;3.87;;;17.50;99.90;;;;;;5036961;28;20443;-80
2021/08/04 00:31:47;;;;;;;14.00;3.67;;;17.20;99.90;;;;;;5035831;28;20486;-81
2021/08/04 00:34:13;;;;;;;4.00;3.70;;;17.30;99.90;;;;;;5036294;28;20443;-81
2021/08/04 00:36:40;;;;;;;3.60;3.20;;;17.30;99.90;;;;;;5035771;28;20463;-80
2021/08/04 00:39:08;;;;;;;6.73;3.80;;;17.20;99.90;;;;;;5035196;28;20449;-80
2021/08/04 00:41:39;;;;;;;4.40;4.00;;;17.30;99.90;;;;;;5035912;28;20439;-80
2021/08/04 00:44:06;;;;;;;4.23;3.87;;;17.40;99.90;;;;;;5035506;28;20451;-80
2021/08/04 00:46:32;;;;;;;4.40;3.50;;;17.40;99.90;;;;;;5035869;28;20478;-80
2021/08/04 00:48:59;;;;;;;4.27;3.87;;;17.40;99.90;;;;;;5035543;28;20450;-81
2021/08/04 00:51:25;;;;;;;5.63;4.23;;;17.40;99.90;;;;;;5034978;28;20451;-79
2021/08/04 00:53:52;;;;;;;4.93;3.10;;;17.30;99.90;;;;;;5034332;28;20447;-80
2021/08/04 00:56:20;;;;;;;3.90;3.60;;;16.80;99.90;;;;;;5036301;28;20462;-79
2021/08/04 00:58:47;;;;;;;4.13;3.83;;;17.10;99.90;;;;;;5038532;28;20565;-80
2021/08/04 01:01:17;;;;;;;4.13;3.83;;;17.10;99.90;;;;;;5038419;28;20505;-80
2021/08/04 01:03:46;;;;;;;4.70;3.60;;;17.10;99.90;;;;;;5039486;28;20435;-80
2021/08/04 01:06:18;;;;;;;5.60;3.90;;;17.10;99.90;;;;;;5044266;28;20914;-79
2021/08/04 01:08:51;;;;;;;4.87;4.40;;;17.20;99.90;;;;;;5044238;28;20435;-80
2021/08/04 01:11:21;;;;;;;3.90;3.30;;;17.30;99.90;;;;;;5043999;28;20431;-80
2021/08/04 01:13:50;;;;;;;4.07;3.77;;;17.40;99.90;;;;;;5043164;28;20455;-80
2021/08/04 01:16:24;;;;;;;3.73;3.50;;;17.30;99.90;;;;;;5041931;28;20817;-80
2021/08/04 01:18:55;;;;;;;3.63;3.40;;;17.30;99.90;;;;;;5038986;28;20505;-80
2021/08/04 01:21:27;;;;;;;4.90;3.97;;;17.30;99.90;;;;;;5038976;28;20523;-81
2021/08/04 01:24:00;;;;;;;3.57;3.37;;;17.40;99.90;;;;;;5038520;28;20435;-80
2021/08/04 01:26:35;;;;;;;3.60;3.30;;;17.30;99.90;;;;;;5038007;28;20491;-80
2021/08/04 01:29:02;;;;;;;3.60;3.30;;;17.30;99.90;;;;;;5038368;28;20431;-80
2021/08/04 01:31:32;;;;;;;3.60;3.40;;;17.30;99.90;;;;;;5039162;28;20869;-80
2021/08/04 01:34:00;;;;;;;4.80;3.90;;;17.30;99.90;;;;;;5040850;28;20498;-80
2021/08/04 01:36:27;;;;;;;3.70;3.40;;;17.20;99.90;;;;;;5039956;28;20464;-80
2021/08/04 01:38:54;;;;;;;3.97;3.57;;;17.10;99.90;;;;;;5039603;28;20482;-80
2021/08/04 01:41:21;;;;;;;3.80;3.50;;;17.10;99.90;;;;;;5040907;28;20485;-79
2021/08/04 01:43:51;;;;;;;3.50;3.30;;;17.20;99.90;;;;;;5040235;28;20447;-80
2021/08/04 01:46:19;;;;;;;4.00;3.70;;;17.20;99.90;;;;;;5040110;28;20552;-79
2021/08/04 01:48:46;;;;;;;3.83;3.30;;;17.30;99.90;;;;;;5039675;28;20443;-79
2021/08/04 01:51:14;;;;;;;4.00;3.70;;;17.30;99.90;;;;;;5040423;28;20482;-80
2021/08/04 01:53:44;;;;;;;4.60;3.70;;;17.20;99.90;;;;;;5039971;28;20493;-80
2021/08/04 01:56:12;;;;;;;3.37;3.10;;;17.20;99.90;;;;;;5038807;28;20464;-80
2021/08/04 01:58:40;;;;;;;3.73;3.43;;;16.80;99.90;;;;;;5039261;28;20458;-80
2021/08/04 02:01:08;;;;;;;2.93;2.77;;;17.00;99.90;;;;;;5038290;28;20450;-80
2021/08/04 02:03:34;;;;;;;3.23;3.03;;;17.10;99.90;;;;;;5038252;28;20490;-80
2021/08/04 02:06:06;;;;;;;3.20;3.00;;;17.00;99.90;;;;;;5037723;28;20545;-80
2021/08/04 02:08:37;;;;;;;3.30;3.00;;;17.10;99.90;;;;;;5038124;28;20439;-80
2021/08/04 02:11:09;;;;;;;3.00;2.80;;;16.90;99.90;;;;;;5037346;28;20439;-80
2021/08/04 02:13:44;;;;;;;3.73;3.43;;;16.90;99.90;;;;;;5037874;28;20466;-80
2021/08/04 02:16:20;;;;;;;3.77;3.27;;;16.90;99.90;;;;;;5038827;28;20516;-81
2021/08/04 02:18:52;;;;;;;4.90;3.40;;;16.90;99.90;;;;;;5038085;28;20454;-80
2021/08/04 02:21:23;;;;;;;4.43;4.10;;;17.00;99.90;;;;;;5039094;28;20522;-80
2021/08/04 02:23:51;;;;;;;6.50;5.00;;;17.00;99.90;;;;;;5038836;28;20466;-79
2021/08/04 02:26:21;;;;;;;4.23;3.90;;;17.00;99.90;;;;;;5038958;28;20490;-80
2021/08/04 02:28:53;;;;;;;4.13;3.83;;;17.10;99.90;;;;;;5038060;28;20455;-79
2021/08/04 02:31:22;;;;;;;4.13;3.80;;;17.10;99.90;;;;;;5038702;28;20796;-80
2021/08/04 02:33:48;;;;;;;3.50;3.00;;;17.10;99.90;;;;;;5039493;28;20942;-80
2021/08/04 02:36:15;;;;;;;4.53;4.13;;;17.00;99.90;;;;;;5037957;28;20467;-80
2021/08/04 02:38:42;;;;;;;5.23;3.77;;;17.00;99.90;;;;;;5036945;28;20444;-80
2021/08/04 02:41:09;;;;;;;4.40;4.00;;;17.00;99.90;;;;;;5036867;28;20981;-80
2021/08/04 02:43:36;;;;;;;4.40;4.00;;;17.10;99.90;;;;;;5037621;28;20957;-80
2021/08/04 02:46:03;;;;;;;3.87;3.57;;;17.10;99.90;;;;;;5037540;28;20487;-79
2021/08/04 02:48:31;;;;;;;5.60;4.27;;;17.00;99.90;;;;;;5036965;28;20447;-80
2021/08/04 02:51:00;;;;;;;4.30;4.00;;;16.80;99.90;;;;;;5038856;28;20459;-80
2021/08/04 02:53:27;;;;;;;4.43;3.40;;;16.90;99.90;;;;;;5037731;28;20446;-79
2021/08/04 02:55:54;;;;;;;5.53;5.03;;;16.80;99.90;;;;;;5036974;28;20517;-81
2021/08/04 02:58:21;;;;;;;4.20;3.87;;;16.80;99.90;;;;;;5039315;28;20558;-79
2021/08/04 03:00:48;;;;;;;4.70;4.30;;;16.80;99.90;;;;;;5037045;28;20456;-80
2021/08/04 03:03:15;;;;;;;5.77;4.73;;;16.70;99.90;;;;;;5036405;28;20491;-80
2021/08/04 03:05:43;;;;;;;6.00;4.80;;;16.70;99.90;;;;;;5052423;22;20541;-85
2021/08/04 03:08:10;;;;;;;5.13;4.60;;;16.70;99.90;;;;;;5041083;28;20446;-87
2021/08/04 03:10:36;;;;;;;5.13;4.63;;;16.70;99.90;;;;;;5041415;28;20447;-85
2021/08/04 03:13:03;;;;;;;5.20;4.80;;;16.80;99.90;;;;;;5042057;28;20450;-85
2021/08/04 03:15:33;;;;;;;5.60;4.40;;;16.80;99.90;;;;;;5039782;28;20847;-85
2021/08/04 03:17:59;;;;;;;7.20;5.30;;;16.80;99.90;;;;;;5056340;28;20188;-84
2021/08/04 03:20:26;;;;;;;5.73;5.20;;;16.80;99.90;;;;;;5058330;28;20438;-84
2021/08/04 03:22:54;;;;;;;5.23;4.80;;;16.80;99.90;;;;;;5045608;28;20447;-84
2021/08/04 03:25:21;;;;;;;5.50;4.40;;;16.50;99.90;;;;;;5043186;28;21012;-84
2021/08/04 03:27:47;;;;;;;5.72;5.13;;;16.80;99.90;;;;;;5042494;28;20446;-84
2021/08/04 03:30:15;;;;;;;5.80;5.30;;;16.70;99.90;;;;;;5042590;28;20200;-84
2021/08/04 03:32:43;;;;;;;6.70;6.10;;;16.60;99.90;;;;;;5043081;28;21012;-85
2021/08/04 03:35:11;;;;;;;6.97;5.70;;;16.50;99.90;;;;;;5042744;28;20833;-84
2021/08/04 03:37:37;;;;;;;6.33;5.77;;;16.40;99.90;;;;;;5043024;28;20477;-84
2021/08/04 03:40:07;;;;;;;8.37;6.13;;;16.10;99.90;;;;;;5042946;28;20451;-87
2021/08/04 03:42:33;;;;;;;6.40;5.90;;;16.20;99.90;;;;;;5042451;28;20480;-86
2021/08/04 03:45:01;;;;;;;6.97;6.07;;;;;;;;;;5041773;28;20447;-86
2021/08/04 03:47:27;;;;;;;5.60;5.10;;;16.20;99.90;;;;;;5038495;28;20410;-84
2021/08/04 03:49:54;;;;;;;6.30;5.80;;;16.20;99.90;;;;;;5039223;28;20458;-86
2021/08/04 03:52:21;;;;;;;6.40;5.90;;;;;;;;;;5038990;28;20474;-83
2021/08/04 03:54:48;;;;;;;6.50;5.93;;;;;;;;;;5040007;28;20924;-84
2021/08/04 03:57:16;;;;;;;5.80;5.20;;;16.40;99.90;;;;;;5045726;28;20201;-84
2021/08/04 03:59:43;;;;;;;6.50;5.90;;;16.40;99.90;;;;;;5037216;28;20451;-85
2021/08/04 04:02:10;;;;;;;7.50;6.60;;;16.50;99.90;;;;;;5038786;28;20956;-85
2021/08/04 04:04:36;;;;;;;6.10;5.60;;;16.40;99.90;;;;;;5038083;28;20454;-85
2021/08/04 04:07:03;;;;;;;5.73;5.23;;;16.40;99.90;;;;;;5037810;28;20490;-85
2021/08/04 04:09:32;;;;;;;6.07;5.57;;;16.30;99.90;;;;;;5046671;28;20447;-85
2021/08/04 04:11:59;;;;;;;7.37;6.80;;;16.30;99.90;;;;;;5058297;28;20434;-85
2021/08/04 04:14:27;;;;;;;7.87;5.60;;;16.30;99.90;;;;;;5057336;28;20430;-85
2021/08/04 04:16:54;;;;;;;6.40;5.80;;;16.30;99.90;;;;;;5043872;28;20467;-86
2021/08/04 04:19:21;;;;;;;6.73;6.00;;;16.40;99.90;;;;;;5044226;28;20444;-85
2021/08/04 04:21:47;;;;;;;6.67;6.10;;;16.30;99.90;;;;;;5048414;28;20447;-87
2021/08/04 04:24:14;;;;;;;7.97;6.93;;;16.30;99.90;;;;;;5046661;28;20478;-86
2021/08/04 04:26:41;;;;;;;6.50;5.90;;;16.40;99.90;;;;;;5040730;28;20866;-85
2021/08/04 04:29:07;;;;;;;7.53;5.87;;;16.40;99.90;;;;;;5040502;28;20461;-85
2021/08/04 04:31:35;;;;;;;6.57;5.97;;;16.40;99.90;;;;;;5045435;28;20469;-85
2021/08/04 04:34:02;;;;;;;6.83;6.30;;;16.40;99.90;;;;;;5047357;28;20443;-85
2021/08/04 04:36:29;;;;;;;6.00;5.47;;;16.30;99.90;;;;;;5045012;28;20462;-85
2021/08/04 04:38:55;;;;;;;7.00;6.40;;;16.30;99.90;;;;;;5044855;28;20502;-85
2021/08/04 04:41:22;;;;;;;7.60;7.00;;;16.30;99.90;;;;;;5046070;28;20553;-85
2021/08/04 04:43:49;;;;;;;7.97;7.27;;;16.40;99.90;;;;;;5045502;28;20451;-85
2021/08/04 04:46:15;;;;;;;6.90;6.23;;;16.40;99.90;;;;;;5047694;28;20482;-86
2021/08/04 04:48:43;;;;;;;7.40;6.70;;;16.40;99.90;;;;;;5048448;28;20936;-84
2021/08/04 04:51:10;;;;;;;7.67;6.97;;;16.40;99.90;;;;;;5052924;28;20512;-86
2021/08/04 04:53:37;;;;;;;7.27;6.73;;;16.40;99.90;;;;;;5061723;28;20458;-85
2021/08/04 04:56:04;;;;;;;6.90;6.30;;;16.30;99.90;;;;;;5058542;28;20459;-86
2021/08/04 04:58:30;;;;;;;8.87;7.97;;;16.40;99.90;;;;;;5057691;28;20439;-85
2021/08/04 05:00:57;;;;;;;7.60;7.00;;;16.50;99.90;;;;;;5059086;28;20465;-84
2021/08/04 05:03:23;;;;;;;7.60;6.83;;;16.50;99.90;;;;;;5060559;28;20438;-85
2021/08/04 05:05:51;;;;;;;7.83;7.13;;;16.60;99.90;;;;;;5048145;28;21050;-85
2021/08/04 05:08:18;;;;;;;7.10;6.50;;;16.70;99.90;;;;;;5045114;28;20554;-85
2021/08/04 05:10:44;;;;;;;7.50;6.70;;;16.70;99.90;;;;;;5046623;28;20447;-84
2021/08/04 05:13:11;;;;;;;7.70;7.00;;;16.80;99.90;;;;;;5044020;28;20447;-85
2021/08/04 05:15:38;;;;;;;10.03;7.60;;;16.70;99.90;;;;;;5043184;28;20835;-84
2021/08/04 05:18:04;;;;;;;9.70;7.03;;;16.40;99.90;;;;;;5043073;28;20443;-85
2021/08/04 05:20:31;;;;;;;8.10;7.33;;;16.50;99.90;;;;;;5043668;28;20478;-85
2021/08/04 05:22:59;;;;;;;15.07;12.53;;;16.60;99.90;;;;;;5050812;28;20490;-82
2021/08/04 05:25:27;;;;;;;7.50;6.90;;;16.70;99.90;;;;;;5057354;28;20813;-85
2021/08/04 05:27:54;;;;;;;9.20;7.50;;;16.70;99.90;;;;;;5044382;28;20446;-86
2021/08/04 05:30:20;;;;;;;8.60;7.70;;;16.70;99.90;;;;;;5043451;28;20455;-86
2021/08/04 05:32:47;;;;;;;9.00;8.10;;;16.60;99.90;;;;;;5043891;28;20451;-84
2021/08/04 05:35:14;;;;;;;7.37;6.60;;;16.40;99.90;;;;;;5042453;28;20475;-85
2021/08/04 05:37:41;;;;;;;8.80;6.93;;;16.50;99.90;;;;;;5044183;28;20451;-86
2021/08/04 05:40:10;;;;;;;8.33;7.53;;;16.50;99.90;;;;;;5047763;28;20443;-85
2021/08/04 05:42:37;;;;;;;8.10;7.30;;;16.50;99.90;;;;;;5049532;28;20478;-85
2021/08/04 05:45:06;;;;;;;9.20;8.50;;;16.70;99.90;;;;;;5043571;28;20442;-85
2021/08/04 05:47:32;;;;;;;7.90;6.63;;;16.70;99.90;;;;;;5042545;28;20482;-85
2021/08/04 05:49:59;;;;;;;8.07;7.37;;;16.80;99.90;;;;;;5043184;28;20446;-85
2021/08/04 05:52:26;;;;;;;8.00;7.18;;;16.80;99.90;;;;;;5042885;28;20446;-84
2021/08/04 05:54:52;;;;;;;14.30;7.60;;;16.80;99.90;;;;;;5046916;28;20208;-85
2021/08/04 05:57:20;;;;;;;11.27;7.30;;;16.80;99.90;;;;;;5043929;28;20443;-84
2021/08/04 05:59:47;;;;;;;8.60;7.80;;;16.90;99.90;;;;;;5041773;28;20459;-85
2021/08/04 06:02:13;;;;;;;8.30;7.50;;;16.90;99.90;;;;;;5043121;28;20473;-85
2021/08/04 06:04:40;;;;;;;8.33;7.63;;;16.90;99.90;;;;;;5042383;28;20817;-85
2021/08/04 06:07:06;;;;;;;10.87;7.87;;;16.90;99.90;;;;;;5041852;28;20510;-85
2021/08/04 06:09:33;;;;;;;8.40;7.67;;;17.00;99.90;;;;;;5045944;28;20867;-85
2021/08/04 06:12:00;;;;;;;8.77;7.97;;;16.90;99.90;;;;;;5041777;28;20482;-85
2021/08/04 06:14:28;;;;;;;14.70;13.40;;;16.90;99.90;;;;;;5042352;28;20603;-85
2021/08/04 06:16:55;;;;;;;12.97;8.73;;;16.90;99.90;;;;;;5041586;28;20473;-83
2021/08/04 06:19:21;;;;;;;8.33;7.63;;;17.00;99.90;;;;;;5042613;28;20533;-85
2021/08/04 06:21:48;;;;;;;8.50;7.70;;;16.90;99.90;;;;;;5055307;28;20447;-85
2021/08/04 06:24:14;;;;;;;8.93;8.10;;;17.00;99.90;;;;;;5059738;28;20438;-84
2021/08/04 06:26:41;;;;;;;9.27;8.40;;;17.10;99.90;;;;;;5060034;28;20478;-84
2021/08/04 06:29:07;;;;;;;7.73;7.03;;;17.10;99.90;;;;;;5053469;28;20435;-84
2021/08/04 06:31:35;;;;;;;7.80;6.80;;;17.20;99.90;;;;;;5059632;28;20454;-85
2021/08/04 06:34:02;;;;;;;10.40;6.70;;;17.20;99.90;;;;;;5059699;28;20458;-83
2021/08/04 06:36:29;;;;;;;6.80;6.10;;;17.20;99.90;;;;;;5058817;28;20451;-85
2021/08/04 06:38:55;;;;;;;9.93;8.40;;;17.30;99.90;;;;;;5048482;28;20451;-85
2021/08/04 06:41:22;;;;;;;7.83;7.00;;;17.40;99.90;;;;;;5044713;28;20457;-85
2021/08/04 06:43:48;;;;;;;8.20;5.97;;;17.40;99.90;;;;;;5043176;28;20451;-84
2021/08/04 06:46:16;;;;;;;6.70;5.90;;;17.40;99.90;;;;;;5041523;28;20482;-81
2021/08/04 06:48:44;;;;;;;11.60;7.27;;;17.40;99.90;;;;;;5038649;28;20435;-81
2021/08/04 06:51:11;;;;;;;9.77;6.10;;;17.40;99.90;;;;;;5038559;28;20497;-82
2021/08/04 06:53:38;;;;;;;7.63;6.67;;;17.40;99.90;;;;;;5040529;28;20549;-81
2021/08/04 06:56:05;;;;;;;5.67;5.17;;;17.50;99.90;;;;;;5037011;28;20978;-81
2021/08/04 06:58:31;;;;;;;5.80;5.40;;;17.50;99.90;;;;;;5037408;28;20478;-82
2021/08/04 07:00:58;;;;;;;8.90;6.47;;;17.50;99.90;;;;;;5037576;28;20490;-82
2021/08/04 07:03:25;;;;;;;5.80;5.30;;;17.60;99.90;;;;;;5038135;28;20478;-81
2021/08/04 07:05:53;;;;;;;7.10;6.43;;;17.70;99.90;;;;;;5037395;28;20533;-79
2021/08/04 07:08:20;;;;;;;9.70;5.30;;;17.70;99.90;;;;;;5037577;28;20478;-80
2021/08/04 07:10:48;;;;;;;7.03;5.10;;;17.80;99.90;;;;;;5038213;28;20783;-82
2021/08/04 07:13:14;;;;;;;5.77;5.30;;;17.90;99.90;;;;;;5038304;28;20457;-82
2021/08/04 07:15:41;;;;;;;6.10;4.63;;;17.90;99.90;;;;;;5038603;28;20471;-82
2021/08/04 07:18:09;;;;;;;5.63;4.27;;;17.80;99.90;;;;;;5038389;28;20474;-79
2021/08/04 07:20:37;;;;;;;6.07;5.00;;;17.90;99.90;;;;;;5038106;28;20557;-81
2021/08/04 07:23:06;;;;;;;5.20;4.80;;;17.90;99.90;;;;;;5038433;28;20462;-81
2021/08/04 07:25:33;;;;;;;5.30;4.90;;;17.90;99.90;;;;;;5039063;28;20883;-82
2021/08/04 07:27:59;;;;;;;5.00;3.77;;;17.90;99.90;;;;;;5037765;28;20889;-81
2021/08/04 07:30:26;;;;;;;5.63;5.20;;;18.30;99.90;;;;;;5038135;28;20509;-81
2021/08/04 07:32:52;;;;;;;9.23;4.87;;;18.00;99.90;;;;;;5037572;28;20845;-81
2021/08/04 07:35:19;;;;;;;6.57;4.83;;;18.10;99.90;;;;;;5037740;28;20478;-80
2021/08/04 07:37:46;;;;;;;6.77;4.70;;;18.10;99.90;;;;;;5038073;28;20466;-81
2021/08/04 07:40:18;;;;;;;5.57;4.13;;;18.00;99.90;;;;;;5036724;28;20526;-81
2021/08/04 07:42:44;;;;;;;4.80;4.40;;;18.10;99.90;;;;;;5043063;28;20494;-78
2021/08/04 07:45:12;;;;;;;5.10;4.10;;;18.20;99.90;;;;;;5038886;28;20498;-80
2021/08/04 07:47:38;;;;;;;4.88;4.47;;;18.30;99.90;;;;;;5045139;28;20478;-80
2021/08/04 07:50:09;;;;;;;4.30;3.80;;;18.30;99.90;;;;;;5052343;28;20208;-82
2021/08/04 07:52:35;;;;;;;4.60;4.23;;;18.30;99.90;;;;;;5051349;28;20458;-81
2021/08/04 07:55:03;;;;;;;4.80;4.03;;;18.20;99.90;;;;;;5053572;28;20477;-81
2021/08/04 07:57:31;;;;;;;4.60;3.73;;;18.30;99.90;;;;;;5050133;28;20454;-82
2021/08/04 07:59:57;;;;;;;5.27;4.40;;;18.20;99.90;;;;;;5042298;28;20473;-81
2021/08/04 08:02:24;;;;;;;5.77;4.27;;;18.30;99.90;;;;;;5042819;28;20447;-80
2021/08/04 08:04:51;;;;;;;4.27;3.53;;;18.20;99.90;;;;;;5037872;28;20479;-80
2021/08/04 08:07:17;;;;;;;6.63;5.60;;;18.30;99.90;;;;;;5048744;28;20475;-79
2021/08/04 08:09:44;;;;;;;5.80;3.70;;;18.30;99.90;;;;;;5052156;28;20779;-83
2021/08/04 08:12:10;;;;;;;3.83;3.33;;;18.30;99.90;;;;;;5041661;28;20954;-82
2021/08/04 08:14:38;;;;;;;5.50;3.47;;;18.30;99.90;;;;;;5041777;28;20479;-82
2021/08/04 08:17:05;;;;;;;5.67;4.00;;;18.40;99.90;;;;;;5041374;28;20467;-80
2021/08/04 08:19:32;;;;;;;5.90;4.30;;;18.40;99.90;;;;;;5040202;28;20455;-81
2021/08/04 08:21:59;;;;;;;5.70;4.03;;;18.50;99.90;;;;;;5041643;28;20454;-82
2021/08/04 08:24:26;;;;;;;7.33;5.70;;;18.50;99.90;;;;;;5040952;28;20459;-81
2021/08/04 08:26:52;;;;;;;5.80;4.93;;;18.50;99.90;;;;;;5051533;28;20478;-79
2021/08/04 08:29:19;;;;;;;9.03;4.20;;;18.60;99.90;;;;;;5049296;28;20439;-80
2021/08/04 08:31:47;;;;;;;4.90;4.50;;;18.70;99.90;;;;;;5055554;28;20450;-79
2021/08/04 08:34:13;;;;;;;10.13;5.23;;;18.80;99.90;;;;;;5052228;28;20450;-79
2021/08/04 08:36:40;;;;;;;4.83;4.43;;;18.70;99.90;;;;;;5055919;28;20459;-81
2021/08/04 08:39:09;;;;;;;7.20;5.40;;;18.70;99.90;;;;;;5055310;28;20443;-79
2021/08/04 08:41:36;;;;;;;4.83;3.80;;;18.80;99.90;;;;;;5055842;28;20447;-78
2021/08/04 08:44:04;;;;;;;5.50;3.90;;;18.90;99.90;;;;;;5049295;28;20450;-80
2021/08/04 08:46:32;;;;;;;4.77;4.37;;;19.00;99.90;;;;;;5043617;28;20466;-81
2021/08/04 08:49:01;;;;;;;12.30;5.50;;;19.20;99.90;;;;;;5043638;28;20470;-80
2021/08/04 08:51:29;;;;;;;8.03;5.70;;;19.20;99.90;;;;;;5048643;28;20439;-82
2021/08/04 08:53:56;;;;;;;5.20;4.70;;;19.40;99.90;;;;;;5055065;28;20508;-80
2021/08/04 08:56:23;;;;;;;5.40;5.00;;;19.50;99.90;;;;;;5051381;28;20478;-81
2021/08/04 08:58:52;;;;;;;4.20;3.90;;;19.70;99.90;;;;;;5042489;28;20458;-82
2021/08/04 09:01:19;;;;;;;5.90;3.70;;;19.80;99.90;;;;;;5042806;28;20495;-81
2021/08/04 09:03:45;;;;;;;5.10;4.07;;;19.70;99.90;;;;;;5041541;28;20451;-81
2021/08/04 09:06:13;;;;;;;3.97;3.57;;;19.80;99.90;;;;;;5055530;22;20861;-83
2021/08/04 09:08:40;;;;;;;4.37;3.97;;;19.90;99.90;;;;;;5044420;28;20486;-82
2021/08/04 09:11:13;;;;;;;4.17;3.83;;;20.00;99.90;;;;;;5044014;28;20443;-82
2021/08/04 09:13:39;;;;;;;5.63;4.90;;;20.00;99.90;;;;;;5043301;28;20462;-83
2021/08/04 09:16:10;;;;;;;5.40;4.90;;;20.10;99.90;;;;;;5044101;28;20489;-82
2021/08/04 09:18:42;;;;;;;5.40;4.40;;;20.10;99.90;;;;;;5044676;28;20454;-83
2021/08/04 09:21:09;;;;;;;4.30;3.90;;;19.90;99.90;;;;;;5044268;28;20447;-83
2021/08/04 09:23:44;;;;;;;6.87;3.40;;;19.90;99.90;;;;;;5043372;28;20443;-83
2021/08/04 09:26:13;;;;;;;6.30;4.17;;;19.70;99.90;;;;;;5045220;28;20497;-83
2021/08/04 09:28:54;;;;;;;4.33;4.03;;;19.80;99.90;;;;;;5047510;28;20514;-84
2021/08/04 09:31:22;;;;;;;4.63;3.43;;;20.00;99.90;;;;;;5045939;28;20505;-83
2021/08/04 09:33:48;;;;;;;3.77;3.30;;;19.90;99.90;;;;;;5048719;28;20451;-84
2021/08/04 09:36:26;;;;;;;7.37;4.70;;;19.90;99.90;;;;;;5045709;28;20493;-83
2021/08/04 09:39:04;;;;;;;11.40;5.20;;;20.00;99.90;;;;;;5045996;28;20470;-83
2021/08/04 09:41:30;;;;;;;6.27;4.50;;;20.00;99.90;;;;;;5044030;28;20577;-82
2021/08/04 09:44:05;;;;;;;5.40;4.03;;;20.00;99.90;;;;;;5042331;28;20451;-82
2021/08/04 09:46:32;;;;;;;8.37;5.17;;;20.00;99.90;;;;;;5043028;28;20470;-81
2021/08/04 09:49:10;;;;;;;5.20;4.70;;;20.10;99.90;;;;;;5043873;28;20573;-83
2021/08/04 09:51:37;;;;;;;5.20;4.70;;;20.10;99.90;;;;;;5047011;28;20481;-81
2021/08/04 09:54:10;;;;;;;4.40;4.00;;;20.10;99.90;;;;;;5042882;28;20447;-83
2021/08/04 09:56:49;;;;;;;5.43;4.93;;;20.20;99.90;;;;;;5043922;28;20849;-82
2021/08/04 09:59:15;;;;;;;4.23;3.83;;;20.20;99.90;;;;;;5045434;28;20506;-83
2021/08/04 10:01:42;;;;;;;5.03;4.03;;;20.00;99.90;;;;;;5043652;28;20454;-83
2021/08/04 10:04:12;;;;;;;4.90;4.40;;;20.10;99.90;;;;;;5044421;28;20466;-84
2021/08/04 10:06:40;;;;;;;4.20;3.80;;;20.20;99.90;;;;;;5042592;28;20580;-82
2021/08/04 10:09:11;;;;;;;4.70;4.07;;;20.40;99.90;;;;;;5043072;28;20513;-82
2021/08/04 10:11:43;;;;;;;3.80;3.50;;;20.40;99.90;;;;;;5042429;28;20462;-82
2021/08/04 10:14:13;;;;;;;5.23;3.77;;;20.50;99.90;;;;;;5042196;28;20438;-82
2021/08/04 10:16:41;;;;;;;4.20;3.73;;;20.60;99.90;;;;;;5049440;28;21037;-82
2021/08/04 10:19:08;;;;;;;3.70;3.40;;;20.40;99.90;;;;;;5052090;28;20443;-82
2021/08/04 10:21:37;;;;;;;3.47;3.17;;;20.40;99.90;;;;;;5052480;28;20443;-81
2021/08/04 10:24:06;;;;;;;3.87;3.57;;;20.40;99.90;;;;;;5047297;28;20458;-82
2021/08/04 10:26:35;;;;;;;4.07;3.77;;;20.50;99.90;;;;;;5046614;28;20479;-81
2021/08/04 10:29:03;;;;;;;4.57;4.27;;;20.70;99.90;;;;;;5045904;28;20514;-82
2021/08/04 10:31:30;;;;;;;4.70;4.30;;;20.90;99.90;;;;;;5042666;28;20470;-83
2021/08/04 10:33:58;;;;;;;4.00;3.70;;;21.00;99.90;;;;;;5051851;28;20423;-82
2021/08/04 10:36:31;;;;;;;4.70;4.30;;;21.10;99.90;;;;;;5057576;28;20463;-82
2021/08/04 10:39:00;;;;;;;4.30;3.57;;;21.10;99.90;;;;;;5057134;28;20474;-81
2021/08/04 10:41:28;;;;;;;4.57;4.20;;;21.20;99.90;;;;;;5049864;28;20485;-83
2021/08/04 10:44:00;;;;;;;3.80;3.50;;;21.30;99.90;;;;;;5044127;28;20446;-81
2021/08/04 10:46:42;;;;;;;4.70;4.17;;;21.30;99.90;;;;;;5042760;28;20463;-83
2021/08/04 10:49:23;;;;;;;5.07;4.57;;;21.40;99.90;;;;;;5053256;28;20493;-81
2021/08/04 10:52:13;;;;;;;4.37;3.97;;;21.50;99.90;;;;;;5055140;28;20665;-82
2021/08/04 10:55:07;;;;;;;2.83;2.63;;;21.60;99.90;;;;;;5054189;28;20447;-81
2021/08/04 10:57:36;;;;;;;3.53;3.03;;;21.40;99.90;;;;;;5049132;28;20488;-82
2021/08/04 11:00:24;;;;;;;3.30;3.00;;;21.40;99.90;;;;;;5044753;28;20794;-84
2021/08/04 11:02:50;;;;;;;3.47;3.03;;;21.30;99.90;;;;;;5040072;28;20505;-82
2021/08/04 11:05:17;;;;;;;3.50;3.20;;;21.10;99.90;;;;;;5042763;28;20827;-82
2021/08/04 11:08:16;;;;;;;3.70;3.40;;;21.10;99.90;;;;;;5040463;28;20486;-82
2021/08/04 11:10:50;;;;;;;5.73;3.47;;;21.20;99.90;;;;;;5040694;28;20475;-81
2021/08/04 11:13:54;;;;;;;2.90;2.53;;;21.40;99.90;;;;;;5040793;28;20451;-81
2021/08/04 11:16:33;;;;;;;3.00;2.80;;;21.50;99.90;;;;;;5043883;28;20474;-82
2021/08/04 11:19:02;;;;;;;5.80;3.10;;;21.60;99.90;;;;;;5041258;28;20439;-82
2021/08/04 11:21:29;;;;;;;4.00;3.30;;;21.60;99.90;;;;;;5040888;28;20451;-82
2021/08/04 11:23:56;;;;;;;5.00;3.57;;;21.60;99.90;;;;;;5042288;28;20483;-82
2021/08/04 11:26:25;;;;;;;3.53;3.00;;;21.70;99.90;;;;;;5040802;28;21047;-81
2021/08/04 11:28:52;;;;;;;5.03;3.30;;;21.70;99.90;;;;;;5039653;28;20533;-82
2021/08/04 11:31:20;;;;;;;10.77;3.00;;;21.70;99.90;;;;;;5041888;28;20949;-82
2021/08/04 11:33:49;;;;;;;7.33;5.73;;;21.40;99.90;;;;;;5041716;28;20462;-82
2021/08/04 11:36:18;;;;;;;4.30;3.90;;;21.50;99.90;;;;;;5040956;28;20473;-81
2021/08/04 11:38:48;;;;;;;3.40;3.10;;;21.70;99.90;;;;;;5041079;28;20473;-83
2021/08/04 11:41:25;;;;;;;4.23;3.60;;;21.80;99.90;;;;;;5052377;28;20427;-81
2021/08/04 11:43:58;;;;;;;3.67;3.17;;;21.70;99.90;;;;;;5055795;28;20416;-81
2021/08/04 11:46:32;;;;;;;3.90;3.60;;;21.70;99.90;;;;;;5054125;28;20838;-80
2021/08/04 11:49:04;;;;;;;4.80;3.20;;;21.70;99.90;;;;;;5055040;28;20469;-81
2021/08/04 11:51:37;;;;;;;2.90;2.70;;;21.80;99.90;;;;;;5056748;28;20419;-82
2021/08/04 11:54:05;;;;;;;7.80;2.93;;;21.80;99.90;;;;;;5054733;28;20435;-80
2021/08/04 11:56:32;;;;;;;3.23;3.03;;;22.00;99.90;;;;;;5055283;28;20458;-81
2021/08/04 11:59:06;;;;;;;3.63;3.40;;;21.90;99.90;;;;;;5055974;28;20438;-82
2021/08/04 12:01:33;;;;;;;3.10;2.90;;;21.50;99.90;;;;;;5041404;28;20818;-81
2021/08/04 12:04:10;;;;;;;3.63;3.10;;;21.80;99.90;;;;;;5040212;28;20495;-82
2021/08/04 12:06:38;;;;;;;3.50;3.07;;;21.70;99.90;;;;;;5040135;28;20517;-82
2021/08/04 12:09:25;;;;;;;3.27;3.03;;;21.60;99.90;;;;;;5047747;28;20536;-81
2021/08/04 12:11:53;;;;;;;3.47;3.17;;;21.70;99.90;;;;;;5041677;28;20428;-83
2021/08/04 12:14:20;;;;;;;3.77;2.57;;;21.70;99.90;;;;;;5049660;28;20453;-80
2021/08/04 12:16:50;;;;;;;3.20;3.00;;;21.80;99.90;;;;;;5051091;28;20493;-80
2021/08/04 12:19:29;;;;;;;3.47;3.23;;;21.90;99.90;;;;;;5053485;28;20474;-80
2021/08/04 12:21:55;;;;;;;2.73;2.53;;;22.00;99.90;;;;;;5038391;28;20504;-82
2021/08/04 12:24:22;;;;;;;2.77;2.57;;;21.80;99.90;;;;;;5038079;28;20502;-82
2021/08/04 12:26:50;;;;;;;3.13;2.90;;;21.80;99.90;;;;;;5038314;28;20551;-81
2021/08/04 12:29:24;;;;;;;6.47;5.97;;;22.00;99.90;;;;;;5039130;28;20479;-83
2021/08/04 12:32:02;;;;;;;4.17;3.77;;;22.10;99.90;;;;;;5038661;28;20455;-82
2021/08/04 12:34:31;;;;;;;8.33;4.00;;;22.20;99.90;;;;;;5043633;28;20502;-82
2021/08/04 12:36:58;;;;;;;5.80;3.57;;;22.20;99.90;;;;;;5041453;28;20458;-82
2021/08/04 12:39:27;;;;;;;4.23;3.80;;;22.00;99.90;;;;;;5040986;28;20443;-82
2021/08/04 12:41:53;;;;;;;3.70;3.23;;;22.00;99.90;;;;;;5039696;28;20921;-82
2021/08/04 12:44:20;;;;;;;2.90;2.70;;;23.30;99.90;;;;;;5041458;28;20450;-83
2021/08/04 12:46:47;;;;;;;4.50;3.10;;;21.80;99.90;;;;;;5038934;28;20475;-82
2021/08/04 12:49:17;;;;;;;3.37;3.07;;;21.70;99.90;;;;;;5038812;28;20479;-82
2021/08/04 12:51:55;;;;;;;4.43;3.53;;;21.70;99.90;;;;;;5040068;28;20521;-82
2021/08/04 12:54:28;;;;;;;3.80;3.50;;;21.60;99.90;;;;;;5043697;28;20443;-83
2021/08/04 12:56:55;;;;;;;7.77;5.43;;;21.60;99.90;;;;;;5052141;28;20930;-82